Time;durP1;ratioP1;P1;durP2;ratioP2;P2;SDS_P1;SDS_P2;PMS_P1;PMS_P2;Temp;Humidity;BMP_temperature;BMP_pressure;BME280_temperature;BME280_humidity;BME280_pressure;Samples;Min_cycle;Max_cycle;Signal;HPM_P1;HPM_P2
2023/07/13 00:01:26;;;;;;;2.65;1.35;;;22.20;48.30;;;;;;872826;160;27918;-76
2023/07/13 00:03:52;;;;;;;2.12;0.93;;;22.10;48.30;;;;;;873340;162;27511;-76
2023/07/13 00:06:20;;;;;;;1.70;0.93;;;22.10;48.50;;;;;;872862;160;27569;-76
2023/07/13 00:08:45;;;;;;;1.65;1.10;;;22.00;48.60;;;;;;873558;162;27509;-76
2023/07/13 00:11:12;;;;;;;3.27;1.10;;;22.00;48.60;;;;;;872418;162;27487;-76
2023/07/13 00:13:39;;;;;;;1.42;0.88;;;22.00;48.80;;;;;;872676;163;27543;-76
2023/07/13 00:16:05;;;;;;;0.80;0.80;;;21.90;48.90;;;;;;872340;161;27540;-76
2023/07/13 00:18:31;;;;;;;1.35;1.25;;;21.90;49.10;;;;;;871596;161;27502;-76
2023/07/13 00:21:04;;;;;;;1.87;1.00;;;21.90;49.20;;;;;;872274;160;27471;-76
2023/07/13 00:23:27;;;;;;;1.92;1.15;;;21.90;49.30;;;;;;872254;162;27570;-76
2023/07/13 00:25:56;;;;;;;1.20;1.05;;;21.90;49.30;;;;;;873181;162;27412;-76
2023/07/13 00:28:21;;;;;;;0.95;0.95;;;21.90;49.40;;;;;;873125;162;27575;-76
2023/07/13 00:30:47;;;;;;;0.88;0.88;;;21.90;49.50;;;;;;871446;161;27412;-76
2023/07/13 00:33:16;;;;;;;1.47;1.35;;;21.90;49.50;;;;;;872763;162;27420;-76
2023/07/13 00:35:43;;;;;;;0.95;0.95;;;21.90;49.50;;;;;;871305;163;27537;-76
2023/07/13 00:38:06;;;;;;;0.93;0.80;;;21.90;49.60;;;;;;872992;161;27519;-76
2023/07/13 00:40:33;;;;;;;0.78;0.78;;;21.90;49.60;;;;;;872206;161;27553;-77
2023/07/13 00:43:00;;;;;;;1.77;0.88;;;21.90;50.20;;;;;;872246;162;27392;-76
2023/07/13 00:45:26;;;;;;;1.37;1.15;;;21.90;49.70;;;;;;872441;162;27872;-76
2023/07/13 00:47:53;;;;;;;1.22;1.02;;;21.80;49.70;;;;;;871856;161;27402;-76
2023/07/13 00:50:19;;;;;;;0.82;0.82;;;21.90;49.80;;;;;;871066;162;27435;-76
2023/07/13 00:52:46;;;;;;;1.07;0.95;;;21.90;49.70;;;;;;872457;161;27442;-76
2023/07/13 00:55:13;;;;;;;0.80;0.80;;;21.80;49.70;;;;;;872676;163;27420;-76
2023/07/13 00:57:39;;;;;;;2.15;1.05;;;21.80;49.70;;;;;;872077;163;27552;-77
2023/07/13 01:00:08;;;;;;;1.82;0.90;;;21.80;49.60;;;;;;872973;161;27534;-76
2023/07/13 01:02:32;;;;;;;0.93;0.80;;;21.80;49.60;;;;;;873308;163;27571;-76
2023/07/13 01:05:00;;;;;;;2.33;1.07;;;21.70;49.60;;;;;;873675;162;27501;-76
2023/07/13 01:07:26;;;;;;;1.45;0.93;;;21.70;49.70;;;;;;873895;161;27360;-76
2023/07/13 01:09:52;;;;;;;2.15;1.10;;;21.70;49.70;;;;;;873171;161;27455;-77
2023/07/13 01:12:19;;;;;;;1.02;1.02;;;21.70;49.80;;;;;;874291;161;27577;-76
2023/07/13 01:14:46;;;;;;;0.90;0.90;;;21.60;49.80;;;;;;873464;162;27594;-77
2023/07/13 01:17:12;;;;;;;1.10;1.00;;;21.60;49.80;;;;;;873540;163;27482;-76
2023/07/13 01:19:39;;;;;;;0.93;0.93;;;21.60;50.00;;;;;;874170;161;27428;-76
2023/07/13 01:22:08;;;;;;;2.12;1.22;;;21.60;50.10;;;;;;873052;161;27518;-76
2023/07/13 01:24:32;;;;;;;2.75;1.12;;;21.60;50.10;;;;;;873521;162;27463;-76
2023/07/13 01:26:58;;;;;;;0.93;0.90;;;21.50;50.20;;;;;;873373;162;27438;-76
2023/07/13 01:29:25;;;;;;;1.12;1.00;;;21.50;50.30;;;;;;872901;161;28014;-77
2023/07/13 01:31:52;;;;;;;2.58;1.25;;;21.40;50.30;;;;;;872975;161;27437;-76
2023/07/13 01:34:18;;;;;;;1.95;1.20;;;21.40;50.30;;;;;;874117;162;27499;-76
2023/07/13 01:36:45;;;;;;;1.82;1.72;;;21.40;50.40;;;;;;873237;163;27451;-77
2023/07/13 01:39:11;;;;;;;2.00;1.20;;;21.30;50.50;;;;;;872676;161;27404;-77
2023/07/13 01:41:38;;;;;;;2.02;1.30;;;21.20;50.50;;;;;;873773;161;27528;-76
2023/07/13 01:44:04;;;;;;;1.87;1.10;;;21.20;50.60;;;;;;873375;161;27411;-76
2023/07/13 01:46:31;;;;;;;3.35;1.20;;;21.10;50.70;;;;;;873429;161;27545;-76
2023/07/13 01:48:58;;;;;;;1.25;1.00;;;21.00;50.80;;;;;;869126;163;27431;-77
2023/07/13 01:51:24;;;;;;;1.22;1.12;;;20.90;51.00;;;;;;873564;161;27447;-76
2023/07/13 01:53:51;;;;;;;2.05;1.10;;;20.80;51.20;;;;;;873374;162;27420;-76
2023/07/13 01:56:17;;;;;;;2.20;1.50;;;20.70;51.30;;;;;;873755;162;27424;-76
2023/07/13 01:58:44;;;;;;;1.40;1.20;;;20.60;51.40;;;;;;873207;162;27523;-76
2023/07/13 02:01:11;;;;;;;1.20;1.20;;;20.60;51.60;;;;;;872984;161;27431;-77
2023/07/13 02:03:37;;;;;;;1.12;1.10;;;20.50;51.70;;;;;;873580;162;27416;-76
2023/07/13 02:06:04;;;;;;;0.80;0.80;;;20.40;52.50;;;;;;873110;163;27414;-76
2023/07/13 02:08:30;;;;;;;1.45;1.35;;;20.40;52.00;;;;;;873252;163;27537;-76
2023/07/13 02:10:57;;;;;;;1.52;1.20;;;20.30;52.10;;;;;;872899;161;27530;-76
2023/07/13 02:13:24;;;;;;;1.35;1.22;;;20.30;52.20;;;;;;871517;162;27477;-76
2023/07/13 02:15:53;;;;;;;1.15;1.15;;;20.30;52.30;;;;;;871797;162;27452;-76
2023/07/13 02:18:20;;;;;;;1.75;1.17;;;20.20;52.40;;;;;;871818;163;27420;-76
2023/07/13 02:20:46;;;;;;;1.50;1.17;;;20.20;52.50;;;;;;872511;161;27548;-76
2023/07/13 02:23:13;;;;;;;1.42;1.32;;;20.10;52.50;;;;;;871759;162;27511;-76
2023/07/13 02:25:39;;;;;;;1.30;1.10;;;20.10;52.60;;;;;;871693;162;27525;-76
2023/07/13 02:28:06;;;;;;;1.17;1.05;;;20.00;52.80;;;;;;870867;163;27709;-76
2023/07/13 02:30:33;;;;;;;1.52;1.17;;;19.90;53.00;;;;;;872126;159;27489;-76
2023/07/13 02:32:59;;;;;;;1.20;1.10;;;19.80;53.30;;;;;;871457;161;27443;-76
2023/07/13 02:35:26;;;;;;;1.30;1.20;;;19.70;53.30;;;;;;871589;163;27498;-76
2023/07/13 02:37:53;;;;;;;1.40;1.30;;;19.70;53.40;;;;;;871387;161;27514;-76
2023/07/13 02:40:19;;;;;;;1.35;1.05;;;19.50;53.50;;;;;;871220;161;27568;-73
2023/07/13 02:42:46;;;;;;;2.85;1.40;;;19.50;53.80;;;;;;871430;163;27556;-73
2023/07/13 02:45:13;;;;;;;1.98;1.72;;;19.40;54.00;;;;;;871537;163;27436;-73
2023/07/13 02:47:39;;;;;;;1.30;1.20;;;19.30;54.20;;;;;;868771;162;27392;-73
2023/07/13 02:50:05;;;;;;;1.35;0.88;;;19.30;54.30;;;;;;871581;162;27984;-73
2023/07/13 02:52:32;;;;;;;1.00;1.00;;;19.30;54.50;;;;;;871873;161;27518;-73
2023/07/13 02:54:59;;;;;;;1.50;1.20;;;19.30;54.70;;;;;;871256;163;27540;-73
2023/07/13 02:57:26;;;;;;;1.07;0.98;;;19.30;54.90;;;;;;871024;161;27976;-73
2023/07/13 02:59:52;;;;;;;1.22;1.10;;;19.30;55.00;;;;;;871745;163;27449;-73
2023/07/13 03:02:18;;;;;;;1.80;1.25;;;19.30;55.00;;;;;;871774;161;27408;-73
2023/07/13 03:04:45;;;;;;;1.20;1.00;;;19.30;55.00;;;;;;871625;163;27573;-73
2023/07/13 03:07:13;;;;;;;2.08;1.30;;;19.30;55.10;;;;;;871438;162;27467;-73
2023/07/13 03:09:38;;;;;;;1.80;1.30;;;19.30;55.10;;;;;;870424;163;27931;-73
2023/07/13 03:12:05;;;;;;;1.00;0.90;;;19.20;55.20;;;;;;870882;161;27557;-73
2023/07/13 03:14:31;;;;;;;1.95;1.20;;;19.20;55.20;;;;;;874100;160;27400;-73
2023/07/13 03:16:58;;;;;;;1.10;1.00;;;19.10;55.20;;;;;;873448;161;27514;-73
2023/07/13 03:19:24;;;;;;;1.30;1.20;;;19.10;55.30;;;;;;873775;162;27427;-73
2023/07/13 03:21:51;;;;;;;1.65;1.17;;;19.00;55.40;;;;;;873883;160;27426;-73
2023/07/13 03:24:18;;;;;;;1.27;1.17;;;18.90;55.60;;;;;;873748;162;27424;-73
2023/07/13 03:26:44;;;;;;;1.98;1.22;;;18.90;55.70;;;;;;873746;163;27592;-73
2023/07/13 03:29:11;;;;;;;2.40;2.10;;;18.80;55.80;;;;;;874357;162;27435;-73
2023/07/13 03:31:38;;;;;;;2.02;1.27;;;18.70;56.00;;;;;;874247;161;27387;-73
2023/07/13 03:34:04;;;;;;;1.52;1.40;;;18.70;56.10;;;;;;873891;162;27542;-73
2023/07/13 03:36:31;;;;;;;2.33;1.60;;;18.60;56.00;;;;;;874098;160;27439;-73
2023/07/13 03:38:57;;;;;;;1.52;0.98;;;18.60;56.20;;;;;;874081;163;27439;-73
2023/07/13 03:41:24;;;;;;;2.02;1.20;;;18.50;56.20;;;;;;874412;160;27428;-73
2023/07/13 03:43:50;;;;;;;1.15;1.15;;;18.50;56.30;;;;;;872917;161;27428;-73
2023/07/13 03:46:17;;;;;;;2.75;1.60;;;18.40;56.50;;;;;;873770;163;27414;-73
2023/07/13 03:48:44;;;;;;;1.17;1.15;;;18.40;56.70;;;;;;873998;161;27569;-73
2023/07/13 03:51:10;;;;;;;2.70;1.45;;;18.30;56.90;;;;;;873976;160;27447;-72
2023/07/13 03:53:40;;;;;;;1.80;1.20;;;18.30;57.10;;;;;;874543;162;27408;-73
2023/07/13 03:56:06;;;;;;;1.20;1.10;;;18.20;57.20;;;;;;873701;162;27561;-73
2023/07/13 03:58:33;;;;;;;1.70;1.47;;;18.20;57.40;;;;;;874365;162;27443;-73
2023/07/13 04:00:59;;;;;;;1.45;1.35;;;18.10;57.50;;;;;;873777;160;27548;-73
2023/07/13 04:03:27;;;;;;;1.82;1.52;;;18.10;57.70;;;;;;874007;163;27510;-74
2023/07/13 04:05:52;;;;;;;2.22;1.37;;;18.00;57.80;;;;;;873801;162;27529;-73
2023/07/13 04:08:19;;;;;;;1.63;1.53;;;18.00;58.00;;;;;;873688;161;27537;-73
2023/07/13 04:10:46;;;;;;;1.62;1.35;;;18.00;58.00;;;;;;873708;160;27563;-73
2023/07/13 04:13:12;;;;;;;2.50;1.40;;;18.00;58.20;;;;;;874742;161;27486;-73
2023/07/13 04:15:39;;;;;;;1.50;1.40;;;18.00;58.30;;;;;;878601;162;27458;-73
2023/07/13 04:18:06;;;;;;;3.05;1.37;;;18.00;58.40;;;;;;877670;160;27450;-73
2023/07/13 04:20:32;;;;;;;2.52;1.30;;;18.00;58.50;;;;;;874702;160;27447;-73
2023/07/13 04:22:59;;;;;;;1.77;1.10;;;18.00;58.60;;;;;;874639;161;27743;-73
2023/07/13 04:25:25;;;;;;;1.50;1.40;;;18.00;58.80;;;;;;874132;163;27449;-73
2023/07/13 04:27:52;;;;;;;2.00;1.50;;;18.00;58.80;;;;;;874222;161;27625;-73
2023/07/13 04:30:18;;;;;;;2.45;1.47;;;18.10;58.90;;;;;;874365;162;27548;-73
2023/07/13 04:32:45;;;;;;;1.90;1.50;;;18.10;58.90;;;;;;873911;160;27572;-73
2023/07/13 04:35:12;;;;;;;2.22;1.55;;;18.10;59.00;;;;;;874210;161;27436;-73
2023/07/13 04:37:38;;;;;;;2.13;1.20;;;18.20;59.10;;;;;;874508;163;27536;-73
2023/07/13 04:40:05;;;;;;;1.42;1.32;;;18.20;59.20;;;;;;874600;160;27501;-73
2023/07/13 04:42:31;;;;;;;3.90;1.30;;;18.30;59.20;;;;;;874605;160;27526;-73
2023/07/13 04:44:58;;;;;;;1.90;1.33;;;18.30;59.30;;;;;;874649;160;27525;-73
2023/07/13 04:47:24;;;;;;;2.35;1.50;;;18.40;59.30;;;;;;874111;160;27526;-73
2023/07/13 04:49:51;;;;;;;1.47;1.37;;;18.40;59.40;;;;;;873799;160;27416;-73
2023/07/13 04:52:18;;;;;;;1.50;1.40;;;18.50;59.40;;;;;;874858;160;27439;-73
2023/07/13 04:54:44;;;;;;;2.37;1.50;;;18.60;59.40;;;;;;874228;160;27466;-73
2023/07/13 04:57:11;;;;;;;1.77;1.32;;;18.70;59.40;;;;;;874305;161;27529;-73
2023/07/13 04:59:37;;;;;;;2.27;1.17;;;18.80;59.50;;;;;;874646;160;27411;-73
2023/07/13 05:02:04;;;;;;;1.65;1.30;;;18.90;59.60;;;;;;874763;160;27427;-73
2023/07/13 05:04:31;;;;;;;1.40;1.30;;;19.10;60.00;;;;;;874778;163;27447;-73
2023/07/13 05:06:57;;;;;;;1.70;1.30;;;19.30;60.30;;;;;;874513;163;27435;-73
2023/07/13 05:09:24;;;;;;;1.95;1.65;;;19.60;60.90;;;;;;874615;161;27544;-73
2023/07/13 05:11:50;;;;;;;1.98;1.10;;;20.10;61.40;;;;;;874857;160;27496;-73
2023/07/13 05:14:17;;;;;;;3.52;1.55;;;20.70;61.80;;;;;;874039;160;27488;-73
2023/07/13 05:16:44;;;;;;;2.98;1.10;;;21.40;61.70;;;;;;872177;162;27549;-73
2023/07/13 05:19:10;;;;;;;1.82;1.30;;;22.10;61.00;;;;;;872573;163;27491;-73
2023/07/13 05:21:37;;;;;;;1.67;0.90;;;23.00;60.60;;;;;;872210;161;27518;-73
2023/07/13 05:24:03;;;;;;;2.70;1.27;;;23.80;59.80;;;;;;873453;161;27502;-73
2023/07/13 05:26:30;;;;;;;1.37;1.20;;;24.70;58.80;;;;;;872141;161;27550;-73
2023/07/13 05:28:57;;;;;;;2.90;0.98;;;25.60;57.80;;;;;;874032;162;27429;-73
2023/07/13 05:31:23;;;;;;;1.87;1.12;;;26.50;56.70;;;;;;873173;161;27508;-73
2023/07/13 05:33:50;;;;;;;1.12;1.10;;;27.30;55.30;;;;;;872618;162;27456;-73
2023/07/13 05:36:16;;;;;;;1.25;0.95;;;28.10;54.20;;;;;;873312;162;27534;-74
2023/07/13 05:38:43;;;;;;;0.70;0.70;;;28.80;53.20;;;;;;872509;161;27587;-73
2023/07/13 05:41:09;;;;;;;1.42;1.00;;;29.50;52.40;;;;;;873017;161;27533;-74
2023/07/13 05:43:36;;;;;;;1.30;1.20;;;30.10;51.50;;;;;;873260;162;27425;-74
2023/07/13 05:46:03;;;;;;;1.10;1.00;;;30.80;50.80;;;;;;873033;162;27452;-74
2023/07/13 05:48:29;;;;;;;1.22;0.90;;;31.50;50.00;;;;;;872995;161;27563;-74
2023/07/13 05:50:56;;;;;;;2.05;1.40;;;32.00;49.00;;;;;;872256;161;27522;-74
2023/07/13 05:53:22;;;;;;;1.20;1.10;;;32.60;48.00;;;;;;873386;161;27423;-74
2023/07/13 05:55:52;;;;;;;1.60;1.07;;;33.20;47.20;;;;;;872853;162;28008;-74
2023/07/13 05:58:16;;;;;;;2.15;0.90;;;33.70;46.30;;;;;;873216;161;26354;-74
2023/07/13 06:00:42;;;;;;;3.20;1.32;;;34.20;45.30;;;;;;873089;161;27525;-74
2023/07/13 06:03:09;;;;;;;2.42;1.20;;;34.60;44.60;;;;;;873072;161;26802;-74
2023/07/13 06:05:38;;;;;;;1.98;1.30;;;35.00;43.80;;;;;;872803;161;26334;-74
2023/07/13 06:08:04;;;;;;;1.25;0.98;;;35.40;43.40;;;;;;872993;162;26413;-74
2023/07/13 06:10:37;;;;;;;1.67;1.05;;;35.70;42.80;;;;;;873118;161;26379;-74
2023/07/13 06:13:03;;;;;;;2.25;1.22;;;36.10;42.20;;;;;;872640;163;26420;-74
2023/07/13 06:15:30;;;;;;;1.62;0.90;;;36.50;41.70;;;;;;872675;161;26391;-74
2023/07/13 06:17:56;;;;;;;3.67;1.05;;;36.80;41.40;;;;;;872904;161;26385;-74
2023/07/13 06:20:23;;;;;;;1.85;1.17;;;37.20;40.80;;;;;;873161;163;27444;-74
2023/07/13 06:22:50;;;;;;;1.07;1.07;;;37.50;40.30;;;;;;871911;161;26323;-74
2023/07/13 06:25:17;;;;;;;2.40;1.00;;;38.00;39.60;;;;;;872979;163;26354;-74
2023/07/13 06:27:43;;;;;;;0.82;0.80;;;38.30;39.10;;;;;;872935;161;26416;-74
2023/07/13 06:30:10;;;;;;;0.85;0.70;;;38.70;38.70;;;;;;872703;161;26354;-74
2023/07/13 06:32:36;;;;;;;1.80;0.80;;;39.00;38.00;;;;;;872123;161;26362;-77
2023/07/13 06:35:03;;;;;;;1.37;0.95;;;39.30;37.30;;;;;;872379;161;26492;-77
2023/07/13 06:37:29;;;;;;;1.12;1.00;;;39.70;36.70;;;;;;873086;161;26334;-77
2023/07/13 06:39:56;;;;;;;1.05;0.80;;;40.00;36.30;;;;;;873001;161;26350;-77
2023/07/13 06:42:22;;;;;;;1.82;1.07;;;40.30;36.00;;;;;;873188;159;26410;-77
2023/07/13 06:44:49;;;;;;;0.90;0.85;;;40.60;35.40;;;;;;872931;161;27551;-78
2023/07/13 06:47:16;;;;;;;1.30;1.15;;;40.90;34.50;;;;;;872997;161;26318;-77
2023/07/13 06:49:42;;;;;;;1.35;0.78;;;41.10;34.10;;;;;;873136;162;26355;-77
2023/07/13 06:52:09;;;;;;;1.95;0.75;;;41.30;33.70;;;;;;872339;162;26448;-77
2023/07/13 06:54:35;;;;;;;0.75;0.65;;;41.50;33.30;;;;;;872397;161;26416;-78
2023/07/13 06:57:02;;;;;;;1.20;0.60;;;41.70;33.10;;;;;;873116;160;26343;-77
2023/07/13 06:59:28;;;;;;;2.58;1.00;;;42.00;32.70;;;;;;873229;161;26362;-77
2023/07/13 07:01:55;;;;;;;1.60;1.12;;;42.20;32.00;;;;;;871969;161;26359;-77
2023/07/13 07:04:22;;;;;;;0.72;0.47;;;42.40;31.60;;;;;;872525;162;26424;-77
2023/07/13 07:06:48;;;;;;;1.35;1.00;;;42.70;31.50;;;;;;872346;161;26407;-77
2023/07/13 07:09:16;;;;;;;0.65;0.62;;;42.90;31.30;;;;;;873618;161;26327;-77
2023/07/13 07:11:42;;;;;;;0.40;0.40;;;43.20;31.00;;;;;;872340;161;26472;-78
2023/07/13 07:14:08;;;;;;;1.02;0.68;;;43.40;30.40;;;;;;872928;161;26468;-78
2023/07/13 07:16:35;;;;;;;0.75;0.75;;;43.70;30.00;;;;;;873322;162;26386;-78
2023/07/13 07:19:01;;;;;;;1.02;0.90;;;43.90;29.70;;;;;;873851;163;26961;-77
2023/07/13 07:21:28;;;;;;;1.20;0.60;;;44.00;29.30;;;;;;873718;160;26476;-77
2023/07/13 07:23:54;;;;;;;1.42;1.00;;;44.10;29.10;;;;;;873616;162;26467;-76
2023/07/13 07:26:21;;;;;;;1.25;1.00;;;44.30;28.50;;;;;;873137;163;26354;-75
2023/07/13 07:28:48;;;;;;;1.62;0.78;;;44.40;28.70;;;;;;873697;163;26835;-75
2023/07/13 07:31:14;;;;;;;2.58;1.02;;;44.40;28.50;;;;;;873551;160;26331;-75
2023/07/13 07:33:41;;;;;;;0.98;0.55;;;44.60;28.40;;;;;;873093;161;26404;-75
2023/07/13 07:36:07;;;;;;;1.50;0.72;;;44.70;28.20;;;;;;873753;163;26342;-75
2023/07/13 07:38:34;;;;;;;1.32;0.75;;;44.80;28.30;;;;;;873677;161;26409;-75
2023/07/13 07:41:00;;;;;;;1.02;0.62;;;44.90;27.90;;;;;;873532;160;26317;-75
2023/07/13 07:43:27;;;;;;;1.47;0.90;;;45.00;27.60;;;;;;872981;160;26448;-75
2023/07/13 07:45:54;;;;;;;0.85;0.75;;;45.20;27.50;;;;;;873750;163;26361;-75
2023/07/13 07:48:20;;;;;;;1.00;0.90;;;45.30;27.30;;;;;;873033;161;26326;-75
2023/07/13 07:50:47;;;;;;;2.83;1.25;;;45.50;27.40;;;;;;873547;162;26335;-75
2023/07/13 07:53:13;;;;;;;1.10;0.68;;;45.70;27.30;;;;;;873786;163;26333;-75
2023/07/13 07:55:40;;;;;;;1.87;0.93;;;45.70;26.80;;;;;;873930;161;26448;-75
2023/07/13 07:58:07;;;;;;;2.20;0.90;;;45.80;26.70;;;;;;873147;161;26377;-76
2023/07/13 08:00:35;;;;;;;1.37;0.80;;;45.90;26.60;;;;;;873489;160;26330;-75
2023/07/13 08:03:00;;;;;;;1.35;0.80;;;45.90;26.50;;;;;;872917;160;26350;-75
2023/07/13 08:05:27;;;;;;;1.45;0.85;;;46.00;26.30;;;;;;873637;160;26326;-75
2023/07/13 08:07:53;;;;;;;1.32;0.68;;;46.10;26.00;;;;;;872763;160;26447;-75
2023/07/13 08:10:20;;;;;;;1.50;0.80;;;46.10;26.00;;;;;;873704;160;26322;-75
2023/07/13 08:12:46;;;;;;;0.70;0.70;;;46.20;25.60;;;;;;873813;160;26338;-75
2023/07/13 08:15:13;;;;;;;2.15;0.70;;;46.20;25.50;;;;;;874305;161;26434;-75
2023/07/13 08:17:39;;;;;;;1.50;0.93;;;46.20;25.30;;;;;;874103;160;26397;-75
2023/07/13 08:20:06;;;;;;;1.72;0.90;;;46.10;25.20;;;;;;873418;161;26386;-75
2023/07/13 08:22:33;;;;;;;1.70;0.93;;;46.10;25.20;;;;;;874041;160;26317;-75
2023/07/13 08:24:59;;;;;;;1.47;0.82;;;46.00;25.00;;;;;;873973;163;26412;-75
2023/07/13 08:27:26;;;;;;;1.55;0.65;;;46.00;24.90;;;;;;873571;162;26452;-77
2023/07/13 08:29:52;;;;;;;0.93;0.80;;;46.00;25.00;;;;;;872148;163;26362;-76
2023/07/13 08:32:19;;;;;;;2.05;1.10;;;46.00;25.00;;;;;;872843;160;26342;-76
2023/07/13 08:34:45;;;;;;;1.25;1.15;;;46.10;25.00;;;;;;872667;162;26366;-76
2023/07/13 08:37:12;;;;;;;2.45;0.78;;;46.10;24.80;;;;;;872190;160;26370;-71
2023/07/13 08:39:39;;;;;;;1.27;0.60;;;46.00;24.60;;;;;;872876;160;26459;-71
2023/07/13 08:42:26;;;;;;;0.65;0.62;;;45.80;24.30;;;;;;872154;160;26336;-71
2023/07/13 08:44:59;;;;;;;1.27;0.72;;;45.60;24.40;;;;;;871694;161;26346;-71
2023/07/13 08:47:25;;;;;;;1.55;0.85;;;45.30;24.50;;;;;;873049;161;26361;-71
2023/07/13 08:49:52;;;;;;;2.00;0.85;;;45.10;24.40;;;;;;873261;160;26475;-71
2023/07/13 08:52:27;;;;;;;1.45;0.65;;;44.80;24.30;;;;;;872711;160;26471;-70
2023/07/13 08:54:54;;;;;;;2.42;0.88;;;44.50;24.30;;;;;;872055;160;26353;-73
2023/07/13 08:57:21;;;;;;;3.55;1.30;;;44.10;24.50;;;;;;872080;162;26322;-73
2023/07/13 08:59:47;;;;;;;2.45;1.20;;;43.80;24.60;;;;;;871891;160;26388;-73
2023/07/13 09:02:29;;;;;;;1.67;0.82;;;43.40;24.70;;;;;;872349;160;26431;-72
2023/07/13 09:04:55;;;;;;;1.27;0.68;;;43.00;24.70;;;;;;867430;161;26346;-73
2023/07/13 09:07:28;;;;;;;1.00;0.90;;;42.70;24.90;;;;;;872418;160;26326;-72
2023/07/13 09:10:00;;;;;;;3.05;0.95;;;42.30;25.00;;;;;;873176;160;26366;-73
2023/07/13 09:12:51;;;;;;;0.93;0.70;;;42.10;25.40;;;;;;868334;160;26321;-72
2023/07/13 09:15:17;;;;;;;2.65;0.72;;;41.90;25.40;;;;;;868686;160;26320;-73
2023/07/13 09:17:46;;;;;;;1.40;0.45;;;41.80;25.70;;;;;;871018;162;26382;-73
2023/07/13 09:20:25;;;;;;;1.67;0.80;;;41.90;25.70;;;;;;873324;162;26463;-72
2023/07/13 09:22:51;;;;;;;2.08;0.88;;;41.90;25.50;;;;;;858329;160;26487;-73
2023/07/13 09:25:27;;;;;;;1.02;0.78;;;41.80;25.40;;;;;;871876;162;26344;-73
2023/07/13 09:27:54;;;;;;;1.17;0.95;;;41.50;25.20;;;;;;872927;163;26305;-72
2023/07/13 09:30:26;;;;;;;0.80;0.72;;;41.20;25.20;;;;;;872878;160;26461;-72
2023/07/13 09:32:53;;;;;;;2.40;0.93;;;40.90;25.30;;;;;;871710;160;26401;-73
2023/07/13 09:35:19;;;;;;;1.30;0.50;;;40.70;25.60;;;;;;872913;162;26361;-72
2023/07/13 09:37:46;;;;;;;1.45;0.80;;;40.50;25.70;;;;;;873599;162;26599;-72
2023/07/13 09:40:12;;;;;;;0.85;0.75;;;40.30;25.90;;;;;;874288;163;26357;-73
2023/07/13 09:42:39;;;;;;;1.20;0.57;;;40.30;26.10;;;;;;872729;161;26365;-73
2023/07/13 09:45:09;;;;;;;2.30;0.85;;;40.20;26.00;;;;;;873110;163;27509;-73
2023/07/13 09:47:35;;;;;;;1.22;0.60;;;40.10;25.80;;;;;;874188;161;26353;-71
2023/07/13 09:50:01;;;;;;;1.80;0.90;;;40.00;25.80;;;;;;873458;162;26358;-72
2023/07/13 09:52:28;;;;;;;2.42;0.88;;;39.80;25.80;;;;;;874238;161;26501;-73
2023/07/13 09:54:58;;;;;;;4.22;0.70;;;39.70;25.90;;;;;;872820;160;26321;-72
2023/07/13 09:57:21;;;;;;;1.42;0.70;;;39.60;26.10;;;;;;873452;160;26408;-73
2023/07/13 09:59:47;;;;;;;1.35;0.82;;;39.60;26.30;;;;;;874209;162;26345;-73
2023/07/13 10:02:35;;;;;;;1.07;0.88;;;39.60;26.40;;;;;;872914;160;26346;-73
2023/07/13 10:05:07;;;;;;;1.25;1.00;;;39.70;26.10;;;;;;873215;160;26407;-72
2023/07/13 10:07:34;;;;;;;2.25;0.80;;;39.70;25.60;;;;;;874069;160;26407;-72
2023/07/13 10:10:01;;;;;;;1.05;0.40;;;39.60;25.60;;;;;;873588;163;26406;-73
2023/07/13 10:12:27;;;;;;;1.00;0.70;;;39.50;25.50;;;;;;873583;160;26444;-73
2023/07/13 10:14:57;;;;;;;0.88;0.80;;;39.30;25.40;;;;;;873582;162;26326;-73
2023/07/13 10:17:30;;;;;;;1.98;0.80;;;39.10;25.40;;;;;;873243;162;26413;-72
2023/07/13 10:19:56;;;;;;;1.35;0.70;;;38.90;25.30;;;;;;873140;160;26502;-72
2023/07/13 10:22:28;;;;;;;2.10;0.70;;;38.50;25.30;;;;;;873653;160;27461;-72
2023/07/13 10:24:55;;;;;;;2.55;0.80;;;38.20;25.40;;;;;;872639;163;26333;-72
2023/07/13 10:27:25;;;;;;;1.25;0.60;;;38.00;25.50;;;;;;873389;162;26866;-72
2023/07/13 10:29:54;;;;;;;1.57;0.90;;;37.60;25.70;;;;;;872598;160;27511;-72
2023/07/13 10:32:20;;;;;;;1.55;0.78;;;37.30;25.80;;;;;;871889;161;27430;-72
2023/07/13 10:34:47;;;;;;;0.70;0.53;;;37.00;25.90;;;;;;873129;161;27467;-72
2023/07/13 10:37:16;;;;;;;1.30;0.93;;;36.60;25.90;;;;;;872799;162;27488;-72
2023/07/13 10:39:42;;;;;;;0.60;0.60;;;36.20;26.00;;;;;;873442;163;27542;-72
2023/07/13 10:42:09;;;;;;;0.70;0.68;;;35.90;26.20;;;;;;873620;160;27420;-72
2023/07/13 10:44:36;;;;;;;0.85;0.70;;;35.60;26.40;;;;;;873228;160;27431;-72
2023/07/13 10:47:02;;;;;;;1.45;0.80;;;35.30;26.60;;;;;;873794;160;27446;-72
2023/07/13 10:49:29;;;;;;;0.72;0.70;;;35.00;26.70;;;;;;873458;160;27413;-72
2023/07/13 10:51:55;;;;;;;1.00;0.78;;;34.80;26.80;;;;;;873899;160;27464;-72
2023/07/13 10:54:22;;;;;;;1.05;0.95;;;34.60;27.00;;;;;;874038;161;27499;-72
2023/07/13 10:56:55;;;;;;;1.10;0.78;;;34.40;27.20;;;;;;872496;161;27513;-72
2023/07/13 10:59:25;;;;;;;1.05;0.98;;;34.10;27.20;;;;;;864283;163;27507;-73
2023/07/13 11:01:51;;;;;;;0.95;0.82;;;33.90;27.30;;;;;;873919;160;27467;-72
2023/07/13 11:04:17;;;;;;;1.45;0.80;;;33.60;27.50;;;;;;873454;163;27427;-72
2023/07/13 11:06:49;;;;;;;1.02;0.85;;;33.40;27.90;;;;;;874556;160;27420;-72
2023/07/13 11:09:22;;;;;;;0.70;0.70;;;33.20;27.70;;;;;;874259;161;27444;-72
2023/07/13 11:11:48;;;;;;;0.72;0.70;;;33.00;27.80;;;;;;872968;160;27573;-72
2023/07/13 11:14:27;;;;;;;1.57;0.82;;;32.90;27.90;;;;;;874846;160;27463;-71
2023/07/13 11:16:54;;;;;;;1.02;0.70;;;32.70;28.00;;;;;;873517;161;27429;-72
2023/07/13 11:19:20;;;;;;;0.82;0.80;;;32.50;28.30;;;;;;867624;160;27573;-72
2023/07/13 11:22:07;;;;;;;2.58;0.93;;;32.40;28.60;;;;;;863573;163;27456;-72
2023/07/13 11:24:51;;;;;;;0.98;0.72;;;32.30;28.80;;;;;;863856;162;27530;-72
2023/07/13 11:27:20;;;;;;;0.33;0.33;;;32.20;28.90;;;;;;863967;161;27622;-72
2023/07/13 11:29:47;;;;;;;1.42;1.10;;;32.30;29.10;;;;;;869441;162;27415;-72
2023/07/13 11:32:26;;;;;;;0.70;0.68;;;32.30;29.10;;;;;;864448;163;27432;-79
2023/07/13 11:34:52;;;;;;;1.50;0.82;;;32.40;29.20;;;;;;862798;163;27592;-78
2023/07/13 11:37:19;;;;;;;1.42;0.53;;;32.40;29.00;;;;;;863714;163;27448;-78
2023/07/13 11:39:45;;;;;;;1.25;0.80;;;32.40;28.90;;;;;;863373;163;27525;-78
2023/07/13 11:42:14;;;;;;;0.78;0.78;;;32.50;28.90;;;;;;863546;162;27550;-79
2023/07/13 11:44:43;;;;;;;0.98;0.62;;;32.40;28.80;;;;;;863713;163;27439;-78
2023/07/13 11:47:10;;;;;;;3.08;0.82;;;32.40;28.80;;;;;;863197;163;27526;-78
2023/07/13 11:49:39;;;;;;;1.00;0.90;;;32.40;28.90;;;;;;865595;162;27428;-78
2023/07/13 11:52:06;;;;;;;0.55;0.47;;;32.30;29.00;;;;;;864113;163;27543;-78
2023/07/13 11:54:33;;;;;;;5.33;0.82;;;32.20;29.00;;;;;;863743;163;27444;-79
2023/07/13 11:57:02;;;;;;;1.65;0.80;;;32.20;29.10;;;;;;863415;163;27422;-78
2023/07/13 11:59:29;;;;;;;1.35;0.80;;;32.20;29.20;;;;;;862982;163;27953;-77
2023/07/13 12:01:55;;;;;;;1.20;0.60;;;32.10;29.20;;;;;;863234;163;27513;-78
2023/07/13 12:04:25;;;;;;;0.65;0.60;;;32.10;29.30;;;;;;864323;162;27905;-78
2023/07/13 12:06:58;;;;;;;0.72;0.70;;;32.10;29.30;;;;;;863691;162;27440;-78
2023/07/13 12:09:25;;;;;;;1.25;0.85;;;32.10;29.40;;;;;;863233;162;27353;-79
2023/07/13 12:11:51;;;;;;;1.42;1.05;;;32.10;29.50;;;;;;863585;163;27579;-78
2023/07/13 12:14:17;;;;;;;0.82;0.82;;;32.10;29.40;;;;;;863578;163;27543;-79
2023/07/13 12:16:44;;;;;;;1.05;0.80;;;32.10;29.40;;;;;;864542;163;27832;-79
2023/07/13 12:19:22;;;;;;;1.00;0.90;;;32.20;29.40;;;;;;867438;161;27466;-79
2023/07/13 12:21:49;;;;;;;1.72;1.00;;;32.20;29.50;;;;;;869852;161;27502;-78
2023/07/13 12:24:15;;;;;;;1.15;0.80;;;32.30;29.50;;;;;;872917;162;27456;-78
2023/07/13 12:26:42;;;;;;;2.10;1.10;;;32.40;29.70;;;;;;874629;162;27476;-78
2023/07/13 12:29:09;;;;;;;1.10;0.78;;;32.40;29.60;;;;;;874308;160;27361;-79
2023/07/13 12:31:42;;;;;;;1.05;0.78;;;32.50;29.60;;;;;;872737;160;27413;-78
2023/07/13 12:34:08;;;;;;;3.05;0.90;;;32.60;29.60;;;;;;873575;163;27440;-78
2023/07/13 12:36:35;;;;;;;0.93;0.90;;;32.60;29.60;;;;;;873623;163;27437;-78
2023/07/13 12:39:03;;;;;;;1.75;0.90;;;32.60;29.50;;;;;;874343;163;27456;-79
2023/07/13 12:41:28;;;;;;;0.68;0.68;;;32.60;29.40;;;;;;873800;163;27419;-78
2023/07/13 12:43:54;;;;;;;0.95;0.80;;;32.60;29.50;;;;;;874706;163;27514;-78
2023/07/13 12:46:21;;;;;;;0.72;0.70;;;32.60;29.50;;;;;;874374;163;27400;-78
2023/07/13 12:48:51;;;;;;;0.65;0.60;;;32.50;29.40;;;;;;873770;162;27452;-78